sensor_id;sensor_type;location;lat;lon;timestamp;P1;P2;P0
55518;PMS5003;41724;51.176;-0.708;2023-09-12T00:01:51;9;9;
55518;PMS5003;41724;51.176;-0.708;2023-09-12T00:04:18;8;7;
55518;PMS5003;41724;51.176;-0.708;2023-09-12T00:06:45;7;7;
55518;PMS5003;41724;51.176;-0.708;2023-09-12T00:09:12;10;9;
55518;PMS5003;41724;51.176;-0.708;2023-09-12T00:11:39;6;6;
55518;PMS5003;41724;51.176;-0.708;2023-09-12T00:14:05;9;8;
55518;PMS5003;41724;51.176;-0.708;2023-09-12T00:16:34;9;9;
55518;PMS5003;41724;51.176;-0.708;2023-09-12T00:19:01;8;7;
55518;PMS5003;41724;51.176;-0.708;2023-09-12T00:21:28;8;8;
55518;PMS5003;41724;51.176;-0.708;2023-09-12T00:23:55;8;8;
55518;PMS5003;41724;51.176;-0.708;2023-09-12T00:26:21;10;10;
55518;PMS5003;41724;51.176;-0.708;2023-09-12T00:28:48;8;8;
55518;PMS5003;41724;51.176;-0.708;2023-09-12T00:31:15;12;11;
55518;PMS5003;41724;51.176;-0.708;2023-09-12T00:33:42;12;12;
55518;PMS5003;41724;51.176;-0.708;2023-09-12T00:36:09;10;9;
55518;PMS5003;41724;51.176;-0.708;2023-09-12T00:38:36;8;8;
55518;PMS5003;41724;51.176;-0.708;2023-09-12T00:41:03;9;9;
55518;PMS5003;41724;51.176;-0.708;2023-09-12T00:43:30;9;8;
55518;PMS5003;41724;51.176;-0.708;2023-09-12T00:45:57;11;10;
55518;PMS5003;41724;51.176;-0.708;2023-09-12T00:48:23;7;7;
55518;PMS5003;41724;51.176;-0.708;2023-09-12T00:50:50;11;10;
55518;PMS5003;41724;51.176;-0.708;2023-09-12T00:53:19;10;9;
55518;PMS5003;41724;51.176;-0.708;2023-09-12T00:55:50;10;10;
55518;PMS5003;41724;51.176;-0.708;2023-09-12T00:58:20;10;9;
55518;PMS5003;41724;51.176;-0.708;2023-09-12T01:00:47;11;10;
55518;PMS5003;41724;51.176;-0.708;2023-09-12T01:03:15;9;9;
55518;PMS5003;41724;51.176;-0.708;2023-09-12T01:05:42;10;10;
55518;PMS5003;41724;51.176;-0.708;2023-09-12T01:08:10;10;9;
55518;PMS5003;41724;51.176;-0.708;2023-09-12T01:10:36;10;9;
55518;PMS5003;41724;51.176;-0.708;2023-09-12T01:13:03;9;7;
55518;PMS5003;41724;51.176;-0.708;2023-09-12T01:15:32;10;10;
55518;PMS5003;41724;51.176;-0.708;2023-09-12T01:17:59;11;11;
55518;PMS5003;41724;51.176;-0.708;2023-09-12T01:20:27;10;10;
55518;PMS5003;41724;51.176;-0.708;2023-09-12T01:23:00;9;9;
55518;PMS5003;41724;51.176;-0.708;2023-09-12T01:25:50;12;11;
55518;PMS5003;41724;51.176;-0.708;2023-09-12T01:28:32;11;11;
55518;PMS5003;41724;51.176;-0.708;2023-09-12T01:31:03;10;10;
55518;PMS5003;41724;51.176;-0.708;2023-09-12T01:33:31;12;12;
55518;PMS5003;41724;51.176;-0.708;2023-09-12T01:35:59;9;8;
55518;PMS5003;41724;51.176;-0.708;2023-09-12T01:38:26;9;9;
55518;PMS5003;41724;51.176;-0.708;2023-09-12T01:40:53;11;11;
55518;PMS5003;41724;51.176;-0.708;2023-09-12T01:43:23;10;10;
55518;PMS5003;41724;51.176;-0.708;2023-09-12T01:45:53;11;11;
55518;PMS5003;41724;51.176;-0.708;2023-09-12T01:48:24;9;9;
55518;PMS5003;41724;51.176;-0.708;2023-09-12T01:50:55;7;7;
55518;PMS5003;41724;51.176;-0.708;2023-09-12T01:53:22;11;11;
55518;PMS5003;41724;51.176;-0.708;2023-09-12T01:55:49;11;10;
55518;PMS5003;41724;51.176;-0.708;2023-09-12T01:58:17;12;11;
55518;PMS5003;41724;51.176;-0.708;2023-09-12T02:00:45;11;11;
55518;PMS5003;41724;51.176;-0.708;2023-09-12T02:03:14;11;11;
55518;PMS5003;41724;51.176;-0.708;2023-09-12T02:05:41;9;9;
55518;PMS5003;41724;51.176;-0.708;2023-09-12T02:08:09;12;12;
55518;PMS5003;41724;51.176;-0.708;2023-09-12T02:10:36;12;12;
55518;PMS5003;41724;51.176;-0.708;2023-09-12T02:13:03;14;13;
55518;PMS5003;41724;51.176;-0.708;2023-09-12T02:15:30;8;8;
55518;PMS5003;41724;51.176;-0.708;2023-09-12T02:17:57;9;9;
55518;PMS5003;41724;51.176;-0.708;2023-09-12T02:20:24;11;11;
55518;PMS5003;41724;51.176;-0.708;2023-09-12T02:22:51;14;14;
55518;PMS5003;41724;51.176;-0.708;2023-09-12T02:25:19;13;13;
55518;PMS5003;41724;51.176;-0.708;2023-09-12T02:27:48;13;12;
55518;PMS5003;41724;51.176;-0.708;2023-09-12T02:30:15;12;12;
55518;PMS5003;41724;51.176;-0.708;2023-09-12T02:32:42;13;13;
55518;PMS5003;41724;51.176;-0.708;2023-09-12T02:35:09;9;9;
55518;PMS5003;41724;51.176;-0.708;2023-09-12T02:37:36;15;15;
55518;PMS5003;41724;51.176;-0.708;2023-09-12T02:40:04;13;12;
55518;PMS5003;41724;51.176;-0.708;2023-09-12T02:42:32;14;14;
55518;PMS5003;41724;51.176;-0.708;2023-09-12T02:44:59;16;15;
55518;PMS5003;41724;51.176;-0.708;2023-09-12T02:47:26;20;19;
55518;PMS5003;41724;51.176;-0.708;2023-09-12T02:49:54;14;14;
55518;PMS5003;41724;51.176;-0.708;2023-09-12T02:52:21;15;14;
55518;PMS5003;41724;51.176;-0.708;2023-09-12T02:54:48;14;14;
55518;PMS5003;41724;51.176;-0.708;2023-09-12T02:57:15;13;13;
55518;PMS5003;41724;51.176;-0.708;2023-09-12T02:59:42;16;16;
55518;PMS5003;41724;51.176;-0.708;2023-09-12T03:02:09;16;15;
55518;PMS5003;41724;51.176;-0.708;2023-09-12T03:04:36;14;14;
55518;PMS5003;41724;51.176;-0.708;2023-09-12T03:07:03;14;14;
55518;PMS5003;41724;51.176;-0.708;2023-09-12T03:09:30;14;13;
55518;PMS5003;41724;51.176;-0.708;2023-09-12T03:11:58;13;13;
55518;PMS5003;41724;51.176;-0.708;2023-09-12T03:14:28;18;17;
55518;PMS5003;41724;51.176;-0.708;2023-09-12T03:16:55;14;13;
55518;PMS5003;41724;51.176;-0.708;2023-09-12T03:19:22;14;14;
55518;PMS5003;41724;51.176;-0.708;2023-09-12T03:21:49;12;12;
55518;PMS5003;41724;51.176;-0.708;2023-09-12T03:24:16;15;14;
55518;PMS5003;41724;51.176;-0.708;2023-09-12T03:26:43;14;14;
55518;PMS5003;41724;51.176;-0.708;2023-09-12T03:29:10;17;16;
55518;PMS5003;41724;51.176;-0.708;2023-09-12T03:31:37;16;15;
55518;PMS5003;41724;51.176;-0.708;2023-09-12T03:34:04;13;12;
55518;PMS5003;41724;51.176;-0.708;2023-09-12T03:36:31;15;15;
55518;PMS5003;41724;51.176;-0.708;2023-09-12T03:38:58;13;12;
55518;PMS5003;41724;51.176;-0.708;2023-09-12T03:41:25;12;12;
55518;PMS5003;41724;51.176;-0.708;2023-09-12T03:43:52;14;12;
55518;PMS5003;41724;51.176;-0.708;2023-09-12T03:46:20;14;13;
55518;PMS5003;41724;51.176;-0.708;2023-09-12T03:48:48;12;11;
55518;PMS5003;41724;51.176;-0.708;2023-09-12T03:51:15;13;12;
55518;PMS5003;41724;51.176;-0.708;2023-09-12T03:53:43;14;14;
55518;PMS5003;41724;51.176;-0.708;2023-09-12T03:56:10;15;14;
55518;PMS5003;41724;51.176;-0.708;2023-09-12T03:58:37;14;14;
55518;PMS5003;41724;51.176;-0.708;2023-09-12T04:01:05;14;14;
55518;PMS5003;41724;51.176;-0.708;2023-09-12T04:03:32;13;13;
55518;PMS5003;41724;51.176;-0.708;2023-09-12T04:06:00;13;13;
55518;PMS5003;41724;51.176;-0.708;2023-09-12T04:08:26;13;12;
55518;PMS5003;41724;51.176;-0.708;2023-09-12T04:10:54;13;12;
55518;PMS5003;41724;51.176;-0.708;2023-09-12T04:13:21;15;14;
55518;PMS5003;41724;51.176;-0.708;2023-09-12T04:15:48;12;11;
55518;PMS5003;41724;51.176;-0.708;2023-09-12T04:18:15;13;13;
55518;PMS5003;41724;51.176;-0.708;2023-09-12T04:20:42;14;13;
55518;PMS5003;41724;51.176;-0.708;2023-09-12T04:23:09;12;12;
55518;PMS5003;41724;51.176;-0.708;2023-09-12T04:25:36;11;11;
55518;PMS5003;41724;51.176;-0.708;2023-09-12T04:28:03;12;10;
55518;PMS5003;41724;51.176;-0.708;2023-09-12T04:30:30;11;11;
55518;PMS5003;41724;51.176;-0.708;2023-09-12T04:32:57;12;11;
55518;PMS5003;41724;51.176;-0.708;2023-09-12T04:35:25;14;14;
55518;PMS5003;41724;51.176;-0.708;2023-09-12T04:37:52;10;10;
55518;PMS5003;41724;51.176;-0.708;2023-09-12T04:40:19;13;12;
55518;PMS5003;41724;51.176;-0.708;2023-09-12T04:42:46;9;9;
55518;PMS5003;41724;51.176;-0.708;2023-09-12T04:45:13;10;10;
55518;PMS5003;41724;51.176;-0.708;2023-09-12T04:47:40;13;13;
55518;PMS5003;41724;51.176;-0.708;2023-09-12T04:50:08;13;13;
55518;PMS5003;41724;51.176;-0.708;2023-09-12T04:52:36;13;13;
55518;PMS5003;41724;51.176;-0.708;2023-09-12T04:55:03;11;11;
55518;PMS5003;41724;51.176;-0.708;2023-09-12T04:57:30;12;11;
55518;PMS5003;41724;51.176;-0.708;2023-09-12T04:59:58;14;13;
55518;PMS5003;41724;51.176;-0.708;2023-09-12T05:02:26;12;12;
55518;PMS5003;41724;51.176;-0.708;2023-09-12T05:04:53;14;12;
55518;PMS5003;41724;51.176;-0.708;2023-09-12T05:07:19;14;14;
55518;PMS5003;41724;51.176;-0.708;2023-09-12T05:09:46;12;11;
55518;PMS5003;41724;51.176;-0.708;2023-09-12T05:12:14;12;11;
55518;PMS5003;41724;51.176;-0.708;2023-09-12T05:14:41;14;13;
55518;PMS5003;41724;51.176;-0.708;2023-09-12T05:17:08;17;16;
55518;PMS5003;41724;51.176;-0.708;2023-09-12T05:19:35;12;12;
55518;PMS5003;41724;51.176;-0.708;2023-09-12T05:22:02;12;11;
55518;PMS5003;41724;51.176;-0.708;2023-09-12T05:24:30;15;15;
55518;PMS5003;41724;51.176;-0.708;2023-09-12T05:26:57;15;15;
55518;PMS5003;41724;51.176;-0.708;2023-09-12T05:29:24;12;12;
55518;PMS5003;41724;51.176;-0.708;2023-09-12T05:31:51;11;11;
55518;PMS5003;41724;51.176;-0.708;2023-09-12T05:34:18;14;13;
55518;PMS5003;41724;51.176;-0.708;2023-09-12T05:36:45;11;11;
55518;PMS5003;41724;51.176;-0.708;2023-09-12T05:39:11;12;12;
55518;PMS5003;41724;51.176;-0.708;2023-09-12T05:41:38;17;16;
55518;PMS5003;41724;51.176;-0.708;2023-09-12T05:44:05;15;15;
55518;PMS5003;41724;51.176;-0.708;2023-09-12T05:46:32;13;13;
55518;PMS5003;41724;51.176;-0.708;2023-09-12T05:48:59;11;10;
55518;PMS5003;41724;51.176;-0.708;2023-09-12T05:51:27;15;15;
55518;PMS5003;41724;51.176;-0.708;2023-09-12T05:53:54;12;10;
55518;PMS5003;41724;51.176;-0.708;2023-09-12T05:56:21;13;12;
55518;PMS5003;41724;51.176;-0.708;2023-09-12T05:58:48;11;11;
55518;PMS5003;41724;51.176;-0.708;2023-09-12T06:01:15;13;13;
55518;PMS5003;41724;51.176;-0.708;2023-09-12T06:03:42;13;13;
55518;PMS5003;41724;51.176;-0.708;2023-09-12T06:06:09;10;10;
55518;PMS5003;41724;51.176;-0.708;2023-09-12T06:08:36;11;11;
55518;PMS5003;41724;51.176;-0.708;2023-09-12T06:11:03;13;13;
55518;PMS5003;41724;51.176;-0.708;2023-09-12T06:13:30;12;12;
55518;PMS5003;41724;51.176;-0.708;2023-09-12T06:15:57;14;13;
55518;PMS5003;41724;51.176;-0.708;2023-09-12T06:18:24;16;16;
55518;PMS5003;41724;51.176;-0.708;2023-09-12T06:20:50;16;16;
55518;PMS5003;41724;51.176;-0.708;2023-09-12T06:23:17;13;13;
55518;PMS5003;41724;51.176;-0.708;2023-09-12T06:25:44;13;12;
55518;PMS5003;41724;51.176;-0.708;2023-09-12T06:28:11;9;8;
55518;PMS5003;41724;51.176;-0.708;2023-09-12T06:30:38;9;9;
55518;PMS5003;41724;51.176;-0.708;2023-09-12T06:33:05;8;7;
55518;PMS5003;41724;51.176;-0.708;2023-09-12T06:35:32;9;9;
55518;PMS5003;41724;51.176;-0.708;2023-09-12T06:37:59;8;8;
55518;PMS5003;41724;51.176;-0.708;2023-09-12T06:40:26;12;12;
55518;PMS5003;41724;51.176;-0.708;2023-09-12T06:42:53;18;17;
55518;PMS5003;41724;51.176;-0.708;2023-09-12T06:45:20;9;9;
55518;PMS5003;41724;51.176;-0.708;2023-09-12T06:47:47;12;12;
55518;PMS5003;41724;51.176;-0.708;2023-09-12T06:50:15;10;10;
55518;PMS5003;41724;51.176;-0.708;2023-09-12T06:52:42;8;8;
55518;PMS5003;41724;51.176;-0.708;2023-09-12T06:55:09;11;10;
55518;PMS5003;41724;51.176;-0.708;2023-09-12T06:57:37;10;10;
55518;PMS5003;41724;51.176;-0.708;2023-09-12T07:00:04;13;11;
55518;PMS5003;41724;51.176;-0.708;2023-09-12T07:02:32;11;11;
55518;PMS5003;41724;51.176;-0.708;2023-09-12T07:04:59;13;12;
55518;PMS5003;41724;51.176;-0.708;2023-09-12T07:07:26;8;8;
55518;PMS5003;41724;51.176;-0.708;2023-09-12T07:09:54;11;11;
55518;PMS5003;41724;51.176;-0.708;2023-09-12T07:12:20;8;8;
55518;PMS5003;41724;51.176;-0.708;2023-09-12T07:14:48;13;13;
55518;PMS5003;41724;51.176;-0.708;2023-09-12T07:17:16;10;10;
55518;PMS5003;41724;51.176;-0.708;2023-09-12T07:19:44;12;11;
55518;PMS5003;41724;51.176;-0.708;2023-09-12T07:22:11;12;10;
55518;PMS5003;41724;51.176;-0.708;2023-09-12T07:24:38;9;8;
55518;PMS5003;41724;51.176;-0.708;2023-09-12T07:27:04;10;10;
55518;PMS5003;41724;51.176;-0.708;2023-09-12T07:29:31;9;9;
55518;PMS5003;41724;51.176;-0.708;2023-09-12T07:31:58;13;12;
55518;PMS5003;41724;51.176;-0.708;2023-09-12T07:34:25;11;10;
55518;PMS5003;41724;51.176;-0.708;2023-09-12T07:36:52;15;14;
55518;PMS5003;41724;51.176;-0.708;2023-09-12T07:39:19;11;11;
55518;PMS5003;41724;51.176;-0.708;2023-09-12T07:41:46;9;9;
55518;PMS5003;41724;51.176;-0.708;2023-09-12T07:44:13;7;7;
55518;PMS5003;41724;51.176;-0.708;2023-09-12T07:46:40;10;10;
55518;PMS5003;41724;51.176;-0.708;2023-09-12T07:49:07;7;7;
55518;PMS5003;41724;51.176;-0.708;2023-09-12T07:51:34;10;10;
55518;PMS5003;41724;51.176;-0.708;2023-09-12T07:54:02;9;9;
55518;PMS5003;41724;51.176;-0.708;2023-09-12T07:56:29;8;8;
55518;PMS5003;41724;51.176;-0.708;2023-09-12T07:58:57;8;8;
55518;PMS5003;41724;51.176;-0.708;2023-09-12T08:01:23;9;9;
55518;PMS5003;41724;51.176;-0.708;2023-09-12T08:03:50;7;7;
55518;PMS5003;41724;51.176;-0.708;2023-09-12T08:06:18;9;9;
55518;PMS5003;41724;51.176;-0.708;2023-09-12T08:08:45;9;6;
55518;PMS5003;41724;51.176;-0.708;2023-09-12T08:11:11;13;13;
55518;PMS5003;41724;51.176;-0.708;2023-09-12T08:13:38;7;7;
55518;PMS5003;41724;51.176;-0.708;2023-09-12T08:16:05;9;8;
55518;PMS5003;41724;51.176;-0.708;2023-09-12T08:18:32;10;10;
55518;PMS5003;41724;51.176;-0.708;2023-09-12T08:20:59;14;13;
55518;PMS5003;41724;51.176;-0.708;2023-09-12T08:23:26;12;12;
55518;PMS5003;41724;51.176;-0.708;2023-09-12T08:25:54;14;14;
55518;PMS5003;41724;51.176;-0.708;2023-09-12T08:28:21;10;10;
55518;PMS5003;41724;51.176;-0.708;2023-09-12T08:30:47;11;11;
55518;PMS5003;41724;51.176;-0.708;2023-09-12T08:33:14;8;8;
55518;PMS5003;41724;51.176;-0.708;2023-09-12T08:35:41;7;7;
55518;PMS5003;41724;51.176;-0.708;2023-09-12T08:38:08;7;6;
55518;PMS5003;41724;51.176;-0.708;2023-09-12T08:40:37;6;6;
55518;PMS5003;41724;51.176;-0.708;2023-09-12T08:43:04;5;5;
55518;PMS5003;41724;51.176;-0.708;2023-09-12T08:45:31;5;5;
55518;PMS5003;41724;51.176;-0.708;2023-09-12T08:47:58;6;6;
55518;PMS5003;41724;51.176;-0.708;2023-09-12T08:50:27;6;6;
55518;PMS5003;41724;51.176;-0.708;2023-09-12T08:52:55;5;5;
55518;PMS5003;41724;51.176;-0.708;2023-09-12T08:55:22;7;6;
55518;PMS5003;41724;51.176;-0.708;2023-09-12T08:57:50;5;4;
55518;PMS5003;41724;51.176;-0.708;2023-09-12T09:00:17;5;5;
55518;PMS5003;41724;51.176;-0.708;2023-09-12T09:02:45;4;4;
55518;PMS5003;41724;51.176;-0.708;2023-09-12T09:05:13;8;7;
55518;PMS5003;41724;51.176;-0.708;2023-09-12T09:07:41;7;5;
55518;PMS5003;41724;51.176;-0.708;2023-09-12T09:10:13;6;6;
55518;PMS5003;41724;51.176;-0.708;2023-09-12T09:12:43;5;5;
55518;PMS5003;41724;51.176;-0.708;2023-09-12T09:15:27;6;5;
55518;PMS5003;41724;51.176;-0.708;2023-09-12T09:17:57;5;5;
55518;PMS5003;41724;51.176;-0.708;2023-09-12T09:20:25;6;6;
55518;PMS5003;41724;51.176;-0.708;2023-09-12T09:22:57;5;5;
55518;PMS5003;41724;51.176;-0.708;2023-09-12T09:25:25;5;5;
55518;PMS5003;41724;51.176;-0.708;2023-09-12T09:27:53;5;5;
55518;PMS5003;41724;51.176;-0.708;2023-09-12T09:30:38;6;4;
55518;PMS5003;41724;51.176;-0.708;2023-09-12T09:33:07;4;4;
55518;PMS5003;41724;51.176;-0.708;2023-09-12T09:35:36;4;4;
55518;PMS5003;41724;51.176;-0.708;2023-09-12T09:38:04;6;6;
55518;PMS5003;41724;51.176;-0.708;2023-09-12T09:40:32;3;3;
55518;PMS5003;41724;51.176;-0.708;2023-09-12T09:42:59;6;5;
55518;PMS5003;41724;51.176;-0.708;2023-09-12T09:45:27;5;5;
55518;PMS5003;41724;51.176;-0.708;2023-09-12T09:47:56;4;4;
55518;PMS5003;41724;51.176;-0.708;2023-09-12T09:50:24;6;4;
55518;PMS5003;41724;51.176;-0.708;2023-09-12T09:52:53;7;6;
55518;PMS5003;41724;51.176;-0.708;2023-09-12T09:55:21;6;6;
55518;PMS5003;41724;51.176;-0.708;2023-09-12T09:57:48;4;4;
55518;PMS5003;41724;51.176;-0.708;2023-09-12T10:00:15;4;4;
55518;PMS5003;41724;51.176;-0.708;2023-09-12T10:02:42;6;6;
55518;PMS5003;41724;51.176;-0.708;2023-09-12T10:05:12;5;5;
55518;PMS5003;41724;51.176;-0.708;2023-09-12T10:07:40;3;3;
55518;PMS5003;41724;51.176;-0.708;2023-09-12T10:10:09;7;5;
55518;PMS5003;41724;51.176;-0.708;2023-09-12T10:12:39;5;5;
55518;PMS5003;41724;51.176;-0.708;2023-09-12T10:15:17;4;4;
55518;PMS5003;41724;51.176;-0.708;2023-09-12T10:17:46;6;6;
55518;PMS5003;41724;51.176;-0.708;2023-09-12T10:20:23;7;6;
55518;PMS5003;41724;51.176;-0.708;2023-09-12T10:23:03;8;8;
55518;PMS5003;41724;51.176;-0.708;2023-09-12T10:25:35;8;7;
55518;PMS5003;41724;51.176;-0.708;2023-09-12T10:28:03;7;7;
55518;PMS5003;41724;51.176;-0.708;2023-09-12T10:30:31;6;5;
55518;PMS5003;41724;51.176;-0.708;2023-09-12T10:33:00;4;4;
55518;PMS5003;41724;51.176;-0.708;2023-09-12T10:35:28;7;7;
55518;PMS5003;41724;51.176;-0.708;2023-09-12T10:37:58;7;7;
55518;PMS5003;41724;51.176;-0.708;2023-09-12T10:40:27;8;7;
55518;PMS5003;41724;51.176;-0.708;2023-09-12T10:42:56;6;6;
55518;PMS5003;41724;51.176;-0.708;2023-09-12T10:45:26;6;6;
55518;PMS5003;41724;51.176;-0.708;2023-09-12T10:47:54;7;7;
55518;PMS5003;41724;51.176;-0.708;2023-09-12T10:50:21;9;9;
55518;PMS5003;41724;51.176;-0.708;2023-09-12T10:52:48;13;11;
55518;PMS5003;41724;51.176;-0.708;2023-09-12T10:55:15;7;7;
55518;PMS5003;41724;51.176;-0.708;2023-09-12T10:57:59;8;8;
55518;PMS5003;41724;51.176;-0.708;2023-09-12T11:00:27;11;11;
55518;PMS5003;41724;51.176;-0.708;2023-09-12T11:02:55;9;9;
55518;PMS5003;41724;51.176;-0.708;2023-09-12T11:05:37;7;7;
55518;PMS5003;41724;51.176;-0.708;2023-09-12T11:08:16;9;8;
55518;PMS5003;41724;51.176;-0.708;2023-09-12T11:10:45;9;9;
55518;PMS5003;41724;51.176;-0.708;2023-09-12T11:13:44;11;11;
55518;PMS5003;41724;51.176;-0.708;2023-09-12T11:16:11;9;9;
55518;PMS5003;41724;51.176;-0.708;2023-09-12T11:19:13;9;9;
55518;PMS5003;41724;51.176;-0.708;2023-09-12T11:21:42;9;9;
55518;PMS5003;41724;51.176;-0.708;2023-09-12T11:24:10;9;9;
55518;PMS5003;41724;51.176;-0.708;2023-09-12T11:26:54;7;7;
55518;PMS5003;41724;51.176;-0.708;2023-09-12T11:29:26;8;8;
55518;PMS5003;41724;51.176;-0.708;2023-09-12T11:31:54;8;7;
55518;PMS5003;41724;51.176;-0.708;2023-09-12T11:34:22;8;7;
55518;PMS5003;41724;51.176;-0.708;2023-09-12T11:36:51;7;7;
55518;PMS5003;41724;51.176;-0.708;2023-09-12T11:39:22;6;6;
55518;PMS5003;41724;51.176;-0.708;2023-09-12T11:41:49;8;8;
55518;PMS5003;41724;51.176;-0.708;2023-09-12T11:44:18;8;8;
55518;PMS5003;41724;51.176;-0.708;2023-09-12T11:46:47;8;7;
55518;PMS5003;41724;51.176;-0.708;2023-09-12T11:49:15;8;7;
55518;PMS5003;41724;51.176;-0.708;2023-09-12T11:51:46;7;7;
55518;PMS5003;41724;51.176;-0.708;2023-09-12T11:54:15;7;7;
55518;PMS5003;41724;51.176;-0.708;2023-09-12T11:56:44;6;6;
55518;PMS5003;41724;51.176;-0.708;2023-09-12T11:59:13;4;4;
55518;PMS5003;41724;51.176;-0.708;2023-09-12T12:01:39;7;7;
55518;PMS5003;41724;51.176;-0.708;2023-09-12T12:04:07;5;5;
55518;PMS5003;41724;51.176;-0.708;2023-09-12T12:06:35;5;4;
55518;PMS5003;41724;51.176;-0.708;2023-09-12T12:09:03;6;6;
55518;PMS5003;41724;51.176;-0.708;2023-09-12T12:11:31;7;7;
55518;PMS5003;41724;51.176;-0.708;2023-09-12T12:14:08;7;6;
55518;PMS5003;41724;51.176;-0.708;2023-09-12T12:16:36;9;8;
55518;PMS5003;41724;51.176;-0.708;2023-09-12T12:19:05;13;9;
55518;PMS5003;41724;51.176;-0.708;2023-09-12T12:21:33;8;7;
55518;PMS5003;41724;51.176;-0.708;2023-09-12T12:24:00;5;5;
55518;PMS5003;41724;51.176;-0.708;2023-09-12T12:26:28;8;7;
55518;PMS5003;41724;51.176;-0.708;2023-09-12T12:28:56;7;7;
55518;PMS5003;41724;51.176;-0.708;2023-09-12T12:31:25;7;7;
55518;PMS5003;41724;51.176;-0.708;2023-09-12T12:33:53;9;9;
55518;PMS5003;41724;51.176;-0.708;2023-09-12T12:36:20;7;7;
55518;PMS5003;41724;51.176;-0.708;2023-09-12T12:38:48;10;10;
55518;PMS5003;41724;51.176;-0.708;2023-09-12T12:41:17;9;9;
55518;PMS5003;41724;51.176;-0.708;2023-09-12T12:43:49;9;9;
55518;PMS5003;41724;51.176;-0.708;2023-09-12T12:46:20;8;8;
55518;PMS5003;41724;51.176;-0.708;2023-09-12T12:48:48;12;10;
55518;PMS5003;41724;51.176;-0.708;2023-09-12T12:51:16;10;10;
55518;PMS5003;41724;51.176;-0.708;2023-09-12T12:53:44;13;11;
55518;PMS5003;41724;51.176;-0.708;2023-09-12T12:56:13;12;12;
55518;PMS5003;41724;51.176;-0.708;2023-09-12T12:58:49;11;11;
55518;PMS5003;41724;51.176;-0.708;2023-09-12T13:01:17;11;9;
55518;PMS5003;41724;51.176;-0.708;2023-09-12T13:03:44;14;14;
55518;PMS5003;41724;51.176;-0.708;2023-09-12T13:06:11;12;11;
55518;PMS5003;41724;51.176;-0.708;2023-09-12T13:08:39;12;11;
55518;PMS5003;41724;51.176;-0.708;2023-09-12T13:11:07;11;11;
55518;PMS5003;41724;51.176;-0.708;2023-09-12T13:13:35;10;10;
55518;PMS5003;41724;51.176;-0.708;2023-09-12T13:16:02;10;10;
55518;PMS5003;41724;51.176;-0.708;2023-09-12T13:18:30;10;10;
55518;PMS5003;41724;51.176;-0.708;2023-09-12T13:20:57;12;12;
55518;PMS5003;41724;51.176;-0.708;2023-09-12T13:23:24;12;12;
55518;PMS5003;41724;51.176;-0.708;2023-09-12T13:25:51;12;12;
55518;PMS5003;41724;51.176;-0.708;2023-09-12T13:28:18;11;11;
55518;PMS5003;41724;51.176;-0.708;2023-09-12T13:30:45;9;9;
55518;PMS5003;41724;51.176;-0.708;2023-09-12T13:33:14;12;11;
55518;PMS5003;41724;51.176;-0.708;2023-09-12T13:35:41;8;8;
55518;PMS5003;41724;51.176;-0.708;2023-09-12T13:38:08;10;10;
55518;PMS5003;41724;51.176;-0.708;2023-09-12T13:40:36;10;10;
55518;PMS5003;41724;51.176;-0.708;2023-09-12T13:43:04;8;8;
55518;PMS5003;41724;51.176;-0.708;2023-09-12T13:45:31;8;8;
55518;PMS5003;41724;51.176;-0.708;2023-09-12T13:47:59;7;6;
55518;PMS5003;41724;51.176;-0.708;2023-09-12T13:50:27;9;9;
55518;PMS5003;41724;51.176;-0.708;2023-09-12T13:52:53;9;9;
55518;PMS5003;41724;51.176;-0.708;2023-09-12T13:55:21;8;8;
55518;PMS5003;41724;51.176;-0.708;2023-09-12T13:57:48;10;9;
55518;PMS5003;41724;51.176;-0.708;2023-09-12T14:00:15;8;8;
55518;PMS5003;41724;51.176;-0.708;2023-09-12T14:02:43;10;9;
55518;PMS5003;41724;51.176;-0.708;2023-09-12T14:05:11;13;12;
55518;PMS5003;41724;51.176;-0.708;2023-09-12T14:07:38;17;16;
55518;PMS5003;41724;51.176;-0.708;2023-09-12T14:10:06;11;11;
55518;PMS5003;41724;51.176;-0.708;2023-09-12T14:12:34;9;9;
55518;PMS5003;41724;51.176;-0.708;2023-09-12T14:15:01;8;8;
55518;PMS5003;41724;51.176;-0.708;2023-09-12T14:17:28;7;7;
55518;PMS5003;41724;51.176;-0.708;2023-09-12T14:19:58;6;5;
55518;PMS5003;41724;51.176;-0.708;2023-09-12T14:22:25;8;7;
55518;PMS5003;41724;51.176;-0.708;2023-09-12T14:24:52;9;9;
55518;PMS5003;41724;51.176;-0.708;2023-09-12T14:27:19;7;7;
55518;PMS5003;41724;51.176;-0.708;2023-09-12T14:29:46;8;8;
55518;PMS5003;41724;51.176;-0.708;2023-09-12T14:32:13;10;9;
55518;PMS5003;41724;51.176;-0.708;2023-09-12T14:34:39;9;9;
55518;PMS5003;41724;51.176;-0.708;2023-09-12T14:37:07;7;7;
55518;PMS5003;41724;51.176;-0.708;2023-09-12T14:39:34;7;7;
55518;PMS5003;41724;51.176;-0.708;2023-09-12T14:42:00;8;6;
55518;PMS5003;41724;51.176;-0.708;2023-09-12T14:44:27;7;6;
55518;PMS5003;41724;51.176;-0.708;2023-09-12T14:46:54;8;8;
55518;PMS5003;41724;51.176;-0.708;2023-09-12T14:49:21;9;7;
55518;PMS5003;41724;51.176;-0.708;2023-09-12T14:51:48;8;8;
55518;PMS5003;41724;51.176;-0.708;2023-09-12T14:54:14;9;8;
55518;PMS5003;41724;51.176;-0.708;2023-09-12T14:56:41;9;9;
55518;PMS5003;41724;51.176;-0.708;2023-09-12T14:59:08;7;7;
55518;PMS5003;41724;51.176;-0.708;2023-09-12T15:01:37;6;6;
55518;PMS5003;41724;51.176;-0.708;2023-09-12T15:04:04;6;6;
55518;PMS5003;41724;51.176;-0.708;2023-09-12T15:06:32;7;7;
55518;PMS5003;41724;51.176;-0.708;2023-09-12T15:08:59;8;8;
55518;PMS5003;41724;51.176;-0.708;2023-09-12T15:11:26;7;7;
55518;PMS5003;41724;51.176;-0.708;2023-09-12T15:13:53;7;7;
55518;PMS5003;41724;51.176;-0.708;2023-09-12T15:16:20;7;7;
55518;PMS5003;41724;51.176;-0.708;2023-09-12T15:18:47;7;7;
55518;PMS5003;41724;51.176;-0.708;2023-09-12T15:21:15;6;6;
55518;PMS5003;41724;51.176;-0.708;2023-09-12T15:23:42;7;7;
55518;PMS5003;41724;51.176;-0.708;2023-09-12T15:26:09;7;7;
55518;PMS5003;41724;51.176;-0.708;2023-09-12T15:28:36;9;7;
55518;PMS5003;41724;51.176;-0.708;2023-09-12T15:31:03;6;6;
55518;PMS5003;41724;51.176;-0.708;2023-09-12T15:33:30;6;6;
55518;PMS5003;41724;51.176;-0.708;2023-09-12T15:35:56;7;7;
55518;PMS5003;41724;51.176;-0.708;2023-09-12T15:38:23;5;4;
55518;PMS5003;41724;51.176;-0.708;2023-09-12T15:40:51;7;7;
55518;PMS5003;41724;51.176;-0.708;2023-09-12T15:43:18;6;6;
55518;PMS5003;41724;51.176;-0.708;2023-09-12T15:45:45;6;6;
55518;PMS5003;41724;51.176;-0.708;2023-09-12T15:48:12;5;5;
55518;PMS5003;41724;51.176;-0.708;2023-09-12T15:50:39;6;6;
55518;PMS5003;41724;51.176;-0.708;2023-09-12T15:53:06;7;7;
55518;PMS5003;41724;51.176;-0.708;2023-09-12T15:55:32;6;6;
55518;PMS5003;41724;51.176;-0.708;2023-09-12T15:57:59;5;5;
55518;PMS5003;41724;51.176;-0.708;2023-09-12T16:00:27;6;6;
55518;PMS5003;41724;51.176;-0.708;2023-09-12T16:02:54;8;7;
55518;PMS5003;41724;51.176;-0.708;2023-09-12T16:05:21;5;5;
55518;PMS5003;41724;51.176;-0.708;2023-09-12T16:07:48;6;6;
55518;PMS5003;41724;51.176;-0.708;2023-09-12T16:10:15;4;4;
55518;PMS5003;41724;51.176;-0.708;2023-09-12T16:12:42;7;7;
55518;PMS5003;41724;51.176;-0.708;2023-09-12T16:15:09;5;5;
55518;PMS5003;41724;51.176;-0.708;2023-09-12T16:17:36;5;5;
55518;PMS5003;41724;51.176;-0.708;2023-09-12T16:20:03;7;7;
55518;PMS5003;41724;51.176;-0.708;2023-09-12T16:22:31;5;5;
55518;PMS5003;41724;51.176;-0.708;2023-09-12T16:24:57;7;7;